Time,TemperatureF,DewpointF,PressureIn,WindDirection,WindDirectionDegrees,WindSpeedMPH,WindSpeedGustMPH,Humidity,HourlyPrecipIn,Conditions,Clouds,dailyrainin,SoftwareType,DateUTC
2013-01-29 00:04:00,22.9,20.7,30.04,SSE,166,0.0,0.0,91,0.00,,,0.00,Wunderground v.1.13,2013-01-29 05:04:00,
2013-01-29 00:05:00,22.9,20.7,30.04,SSE,166,0.0,0.0,91,0.00,,,0.00,Wunderground v.1.13,2013-01-29 05:05:00,
2013-01-29 00:09:00,22.9,20.7,30.04,SSE,166,0.0,0.0,91,0.00,,,0.00,Wunderground v.1.13,2013-01-29 05:09:00,
2013-01-29 00:11:00,22.9,20.7,30.04,SSE,166,0.0,0.0,91,0.00,,,0.00,Wunderground v.1.13,2013-01-29 05:11:00,
2013-01-29 00:17:00,23.1,21.1,30.04,SSE,167,0.0,0.0,92,0.00,,,0.00,Wunderground v.1.13,2013-01-29 05:17:00,
2013-01-29 00:22:00,23.3,21.3,30.04,SSE,166,0.0,0.0,92,0.00,,,0.00,Wunderground v.1.13,2013-01-29 05:22:00,
2013-01-29 00:28:00,23.5,21.5,30.04,SSE,166,0.0,0.0,92,0.00,,,0.00,Wunderground v.1.13,2013-01-29 05:28:00,
2013-01-29 00:33:00,23.6,21.6,30.04,SSE,166,0.0,0.0,92,0.00,,,0.00,Wunderground v.1.13,2013-01-29 05:33:00,
2013-01-29 00:39:00,23.8,21.6,30.03,SSE,166,0.0,0.0,91,0.00,,,0.00,Wunderground v.1.13,2013-01-29 05:39:00,
2013-01-29 00:44:00,23.9,21.7,30.03,SSE,166,0.0,0.0,91,0.00,,,0.00,Wunderground v.1.13,2013-01-29 05:44:00,
2013-01-29 00:50:00,24.0,21.8,30.03,SSE,166,0.0,0.0,91,0.00,,,0.01,Wunderground v.1.13,2013-01-29 05:50:00,
2013-01-29 00:56:00,24.3,22.3,30.03,SSE,166,0.0,0.0,92,0.00,,,0.01,Wunderground v.1.13,2013-01-29 05:56:00,
2013-01-29 01:01:00,24.3,22.1,30.03,SSE,166,0.0,0.0,91,0.00,,,0.01,Wunderground v.1.13,2013-01-29 06:01:00,
2013-01-29 01:07:00,24.2,22.0,30.04,SSE,166,0.0,0.0,91,0.00,,,0.01,Wunderground v.1.13,2013-01-29 06:07:00,
2013-01-29 01:13:00,24.2,22.0,30.03,SSE,166,0.0,0.0,91,0.00,,,0.01,Wunderground v.1.13,2013-01-29 06:13:00,
2013-01-29 01:19:00,24.2,22.0,30.03,SSE,166,0.0,0.0,91,0.00,,,0.01,Wunderground v.1.13,2013-01-29 06:19:00,
2013-01-29 01:24:00,24.4,22.4,30.04,SSE,166,0.0,0.0,92,0.00,,,0.01,Wunderground v.1.13,2013-01-29 06:24:00,
2013-01-29 01:30:00,24.5,22.5,30.04,SSE,166,0.0,0.0,92,0.00,,,0.01,Wunderground v.1.13,2013-01-29 06:30:00,
2013-01-29 01:36:00,24.6,22.6,30.04,SSE,167,0.0,0.0,92,0.00,,,0.01,Wunderground v.1.13,2013-01-29 06:36:00,
2013-01-29 01:41:00,24.8,22.8,30.05,SSE,166,0.0,0.0,92,0.00,,,0.01,Wunderground v.1.13,2013-01-29 06:41:00,
2013-01-29 01:47:00,24.9,22.9,30.05,SSE,166,0.0,0.0,92,0.00,,,0.01,Wunderground v.1.13,2013-01-29 06:47:00,
2013-01-29 01:53:00,25.0,22.7,30.05,SSE,166,0.0,0.0,91,0.00,,,0.01,Wunderground v.1.13,2013-01-29 06:53:00,
2013-01-29 01:59:00,24.8,22.5,30.06,SSE,166,0.0,0.0,91,0.00,,,0.01,Wunderground v.1.13,2013-01-29 06:59:00,
2013-01-29 02:04:00,24.8,22.5,30.06,SSE,166,0.0,0.0,91,0.00,,,0.01,Wunderground v.1.13,2013-01-29 07:04:00,
2013-01-29 02:09:00,24.7,22.4,30.06,SSE,166,0.0,0.0,91,0.00,,,0.01,Wunderground v.1.13,2013-01-29 07:09:00,
2013-01-29 02:14:00,24.7,22.4,30.06,SSE,166,0.0,0.0,91,0.00,,,0.01,Wunderground v.1.13,2013-01-29 07:14:00,
2013-01-29 02:19:00,24.8,22.8,30.06,SSE,166,0.0,0.0,92,0.00,,,0.01,Wunderground v.1.13,2013-01-29 07:19:00,
2013-01-29 02:24:00,25.0,23.0,30.06,SSE,166,0.0,0.0,92,0.00,,,0.01,Wunderground v.1.13,2013-01-29 07:24:00,
2013-01-29 02:29:00,25.0,22.7,30.06,SSE,166,1.0,1.0,91,0.00,,,0.01,Wunderground v.1.13,2013-01-29 07:29:00,
2013-01-29 02:34:00,24.9,22.6,30.06,SSE,166,0.0,0.0,91,0.00,,,0.01,Wunderground v.1.13,2013-01-29 07:34:00,
2013-01-29 02:39:00,25.0,22.7,30.06,SSE,166,0.0,0.0,91,0.00,,,0.01,Wunderground v.1.13,2013-01-29 07:39:00,
2013-01-29 02:44:00,25.1,22.8,30.06,SSE,166,0.0,0.0,91,0.00,,,0.01,Wunderground v.1.13,2013-01-29 07:44:00,
2013-01-29 02:49:00,25.2,22.9,30.06,SSE,166,0.0,0.0,91,0.00,,,0.01,Wunderground v.1.13,2013-01-29 07:49:00,
2013-01-29 02:54:00,25.3,23.0,30.06,SSE,166,0.0,0.0,91,0.00,,,0.01,Wunderground v.1.13,2013-01-29 07:54:00,
2013-01-29 03:00:00,25.3,23.0,30.06,SSE,166,0.0,0.0,91,0.00,,,0.01,Wunderground v.1.13,2013-01-29 08:00:00,
2013-01-29 03:05:00,25.3,23.0,30.07,SSE,167,0.0,0.0,91,0.00,,,0.01,Wunderground v.1.13,2013-01-29 08:05:00,
2013-01-29 03:10:00,25.3,22.8,30.07,SSE,167,1.0,1.0,90,0.00,,,0.01,Wunderground v.1.13,2013-01-29 08:10:00,
2013-01-29 03:15:00,25.2,22.7,30.07,SSE,166,0.0,0.0,90,0.00,,,0.01,Wunderground v.1.13,2013-01-29 08:15:00,
2013-01-29 03:20:00,25.1,22.6,30.07,SSE,166,0.0,0.0,90,0.00,,,0.01,Wunderground v.1.13,2013-01-29 08:20:00,
2013-01-29 03:25:00,24.9,22.4,30.08,SSE,167,0.0,1.0,90,0.00,,,0.01,Wunderground v.1.13,2013-01-29 08:25:00,
2013-01-29 03:30:00,24.7,22.2,30.08,East,82,0.0,3.0,90,0.00,,,0.01,Wunderground v.1.13,2013-01-29 08:30:00,
2013-01-29 03:35:00,24.6,22.1,30.08,East,82,0.0,1.0,90,0.00,,,0.01,Wunderground v.1.13,2013-01-29 08:35:00,
2013-01-29 03:40:00,24.5,21.7,30.08,East,82,0.0,1.0,89,0.00,,,0.01,Wunderground v.1.13,2013-01-29 08:40:00,
2013-01-29 03:45:00,24.4,21.6,30.08,East,82,0.0,1.0,89,0.00,,,0.01,Wunderground v.1.13,2013-01-29 08:45:00,
2013-01-29 03:50:00,24.5,22.0,30.08,East,82,1.0,1.0,90,0.00,,,0.01,Wunderground v.1.13,2013-01-29 08:50:00,
2013-01-29 03:56:00,24.4,21.6,30.08,East,82,0.0,1.0,89,0.00,,,0.01,Wunderground v.1.13,2013-01-29 08:56:00,
2013-01-29 04:01:00,24.3,21.5,30.08,East,100,0.0,1.0,89,0.00,,,0.01,Wunderground v.1.13,2013-01-29 09:01:00,
2013-01-29 04:06:00,24.1,21.3,30.08,East,100,2.0,2.0,89,0.00,,,0.01,Wunderground v.1.13,2013-01-29 09:06:00,
2013-01-29 04:11:00,24.0,21.5,30.08,East,100,0.0,0.0,90,0.00,,,0.01,Wunderground v.1.13,2013-01-29 09:11:00,
2013-01-29 04:16:00,23.9,21.4,30.08,East,100,0.0,0.0,90,0.00,,,0.01,Wunderground v.1.13,2013-01-29 09:16:00,
2013-01-29 04:21:00,24.0,21.5,30.08,East,100,0.0,0.0,90,0.00,,,0.01,Wunderground v.1.13,2013-01-29 09:21:00,
2013-01-29 04:27:00,24.1,21.6,30.08,East,100,0.0,0.0,90,0.00,,,0.01,Wunderground v.1.13,2013-01-29 09:27:00,
2013-01-29 04:33:00,24.3,21.8,30.08,East,100,0.0,0.0,90,0.00,,,0.01,Wunderground v.1.13,2013-01-29 09:33:00,
2013-01-29 04:38:00,24.4,21.9,30.08,East,100,0.0,0.0,90,0.00,,,0.01,Wunderground v.1.13,2013-01-29 09:38:00,
2013-01-29 04:43:00,24.6,22.1,30.08,East,100,0.0,0.0,90,0.00,,,0.01,Wunderground v.1.13,2013-01-29 09:43:00,
2013-01-29 04:48:00,24.7,22.2,30.09,East,100,0.0,0.0,90,0.00,,,0.01,Wunderground v.1.13,2013-01-29 09:48:00,
2013-01-29 04:53:00,24.8,22.3,30.09,East,100,0.0,0.0,90,0.00,,,0.01,Wunderground v.1.13,2013-01-29 09:53:00,
2013-01-29 04:58:00,24.9,22.4,30.09,East,100,0.0,0.0,90,0.00,,,0.01,Wunderground v.1.13,2013-01-29 09:58:00,
2013-01-29 05:03:00,24.6,21.8,30.09,East,100,0.0,0.0,89,0.00,,,0.01,Wunderground v.1.13,2013-01-29 10:03:00,
2013-01-29 05:08:00,24.4,21.6,30.09,East,100,0.0,0.0,89,0.00,,,0.01,Wunderground v.1.13,2013-01-29 10:08:00,
2013-01-29 05:13:00,24.4,21.9,30.09,East,100,0.0,0.0,90,0.00,,,0.01,Wunderground v.1.13,2013-01-29 10:13:00,
2013-01-29 05:18:00,24.6,22.3,30.09,East,100,0.0,0.0,91,0.00,,,0.01,Wunderground v.1.13,2013-01-29 10:18:00,
2013-01-29 05:23:00,24.6,22.1,30.09,East,100,0.0,0.0,90,0.00,,,0.01,Wunderground v.1.13,2013-01-29 10:23:00,
2013-01-29 05:28:00,24.6,22.1,30.10,East,100,0.0,1.0,90,0.00,,,0.01,Wunderground v.1.13,2013-01-29 10:28:00,
2013-01-29 05:34:00,24.5,22.0,30.10,East,100,0.0,0.0,90,0.00,,,0.01,Wunderground v.1.13,2013-01-29 10:34:00,
2013-01-29 05:41:00,24.7,22.2,30.10,East,100,0.0,1.0,90,0.00,,,0.01,Wunderground v.1.13,2013-01-29 10:41:00,
2013-01-29 05:46:00,24.7,22.2,30.10,East,100,1.0,2.0,90,0.00,,,0.01,Wunderground v.1.13,2013-01-29 10:46:00,
2013-01-29 05:51:00,24.7,22.2,30.10,East,100,0.0,0.0,90,0.00,,,0.01,Wunderground v.1.13,2013-01-29 10:51:00,
2013-01-29 05:57:00,24.8,22.0,30.11,East,100,0.0,0.0,89,0.00,,,0.01,Wunderground v.1.13,2013-01-29 10:57:00,
2013-01-29 06:02:00,24.9,22.4,30.11,East,100,0.0,0.0,90,0.00,,,0.01,Wunderground v.1.13,2013-01-29 11:02:00,
2013-01-29 06:07:00,24.8,22.0,30.11,East,100,0.0,0.0,89,0.00,,,0.01,Wunderground v.1.13,2013-01-29 11:07:00,
2013-01-29 06:12:00,24.8,22.0,30.11,East,100,0.0,0.0,89,0.00,,,0.01,Wunderground v.1.13,2013-01-29 11:12:00,
2013-01-29 06:17:00,24.7,21.9,30.12,East,100,0.0,1.0,89,0.00,,,0.01,Wunderground v.1.13,2013-01-29 11:17:00,
2013-01-29 06:22:00,24.7,21.9,30.12,East,100,0.0,0.0,89,0.00,,,0.01,Wunderground v.1.13,2013-01-29 11:22:00,
2013-01-29 06:27:00,24.8,22.0,30.12,East,100,0.0,1.0,89,0.00,,,0.01,Wunderground v.1.13,2013-01-29 11:27:00,
2013-01-29 06:33:00,24.8,22.3,30.11,East,100,0.0,0.0,90,0.00,,,0.01,Wunderground v.1.13,2013-01-29 11:33:00,
2013-01-29 06:38:00,24.7,22.2,30.12,East,100,0.0,0.0,90,0.00,,,0.01,Wunderground v.1.13,2013-01-29 11:38:00,
2013-01-29 06:43:00,24.6,21.8,30.12,East,100,0.0,1.0,89,0.00,,,0.01,Wunderground v.1.13,2013-01-29 11:43:00,
2013-01-29 06:48:00,24.5,21.7,30.13,East,100,0.0,1.0,89,0.00,,,0.01,Wunderground v.1.13,2013-01-29 11:48:00,
2013-01-29 06:53:00,24.5,21.7,30.13,East,100,0.0,0.0,89,0.00,,,0.01,Wunderground v.1.13,2013-01-29 11:53:00,
2013-01-29 06:58:00,24.5,21.7,30.13,East,100,0.0,0.0,89,0.00,,,0.01,Wunderground v.1.13,2013-01-29 11:58:00,
2013-01-29 07:03:00,24.6,21.8,30.13,East,100,0.0,0.0,89,0.00,,,0.01,Wunderground v.1.13,2013-01-29 12:03:00,
2013-01-29 07:08:00,24.7,21.9,30.13,East,100,0.0,0.0,89,0.00,,,0.01,Wunderground v.1.13,2013-01-29 12:08:00,
2013-01-29 07:13:00,24.9,22.1,30.14,East,100,0.0,0.0,89,0.00,,,0.01,Wunderground v.1.13,2013-01-29 12:13:00,
2013-01-29 07:19:00,24.9,22.1,30.14,East,100,0.0,0.0,89,0.00,,,0.01,Wunderground v.1.13,2013-01-29 12:19:00,
2013-01-29 07:24:00,24.9,22.1,30.14,East,100,0.0,0.0,89,0.00,,,0.01,Wunderground v.1.13,2013-01-29 12:24:00,
2013-01-29 07:30:00,25.0,22.2,30.13,East,100,0.0,0.0,89,0.00,,,0.01,Wunderground v.1.13,2013-01-29 12:30:00,
2013-01-29 07:35:00,25.0,22.2,30.13,East,100,0.0,0.0,89,0.00,,,0.01,Wunderground v.1.13,2013-01-29 12:35:00,
2013-01-29 07:41:00,24.9,21.8,30.14,East,100,0.0,0.0,88,0.00,,,0.01,Wunderground v.1.13,2013-01-29 12:41:00,
2013-01-29 07:46:00,24.9,21.8,30.14,East,100,0.0,0.0,88,0.00,,,0.01,Wunderground v.1.13,2013-01-29 12:46:00,
2013-01-29 07:51:00,25.0,22.2,30.15,East,100,0.0,0.0,89,0.00,,,0.01,Wunderground v.1.13,2013-01-29 12:51:00,
2013-01-29 07:56:00,25.1,22.3,30.15,East,100,0.0,0.0,89,0.00,,,0.01,Wunderground v.1.13,2013-01-29 12:56:00,
2013-01-29 08:01:00,25.2,22.4,30.15,East,100,0.0,0.0,89,0.00,,,0.01,Wunderground v.1.13,2013-01-29 13:01:00,
2013-01-29 08:07:00,25.3,22.5,30.15,East,100,0.0,0.0,89,0.00,,,0.01,Wunderground v.1.13,2013-01-29 13:07:00,
2013-01-29 08:12:00,25.3,22.5,30.15,East,100,0.0,1.0,89,0.00,,,0.01,Wunderground v.1.13,2013-01-29 13:12:00,
2013-01-29 08:17:00,25.3,22.2,30.16,East,100,0.0,0.0,88,0.00,,,0.01,Wunderground v.1.13,2013-01-29 13:17:00,
2013-01-29 08:22:00,25.4,22.6,30.16,East,100,0.0,0.0,89,0.00,,,0.01,Wunderground v.1.13,2013-01-29 13:22:00,
2013-01-29 08:27:00,25.6,22.5,30.16,East,100,0.0,1.0,88,0.00,,,0.01,Wunderground v.1.13,2013-01-29 13:27:00,
2013-01-29 08:32:00,26.0,22.9,30.16,East,100,0.0,0.0,88,0.00,,,0.01,Wunderground v.1.13,2013-01-29 13:32:00,
2013-01-29 08:37:00,26.7,23.6,30.16,East,100,0.0,0.0,88,0.00,,,0.01,Wunderground v.1.13,2013-01-29 13:37:00,
2013-01-29 08:42:00,27.1,23.7,30.15,East,100,1.0,1.0,87,0.00,,,0.01,Wunderground v.1.13,2013-01-29 13:42:00,
2013-01-29 08:47:00,27.4,23.8,30.16,East,100,0.0,1.0,86,0.00,,,0.01,Wunderground v.1.13,2013-01-29 13:47:00,
2013-01-29 08:53:00,27.4,23.5,30.15,East,100,1.0,2.0,85,0.00,,,0.01,Wunderground v.1.13,2013-01-29 13:53:00,
2013-01-29 08:59:00,27.7,23.8,30.15,ESE,120,0.0,1.0,85,0.00,,,0.01,Wunderground v.1.13,2013-01-29 13:59:00,
2013-01-29 09:05:00,27.8,23.9,30.15,ESE,120,0.0,0.0,85,0.00,,,0.01,Wunderground v.1.13,2013-01-29 14:05:00,
2013-01-29 09:10:00,28.0,23.8,30.15,ESE,120,0.0,0.0,84,0.00,,,0.01,Wunderground v.1.13,2013-01-29 14:10:00,
2013-01-29 09:15:00,28.3,24.4,30.15,ESE,120,1.0,2.0,85,0.00,,,0.01,Wunderground v.1.13,2013-01-29 14:15:00,
2013-01-29 09:20:00,28.7,24.5,30.15,ESE,120,1.0,1.0,84,0.00,,,0.01,Wunderground v.1.13,2013-01-29 14:20:00,
2013-01-29 09:26:00,29.3,25.1,30.15,ESE,120,1.0,2.0,84,0.00,,,0.01,Wunderground v.1.13,2013-01-29 14:26:00,
2013-01-29 09:32:00,29.7,25.2,30.15,ESE,120,0.0,1.0,83,0.00,,,0.01,Wunderground v.1.13,2013-01-29 14:32:00,
2013-01-29 09:37:00,30.1,25.6,30.15,ESE,120,0.0,0.0,83,0.00,,,0.01,Wunderground v.1.13,2013-01-29 14:37:00,
2013-01-29 09:42:00,30.3,25.5,30.16,ESE,120,1.0,1.0,82,0.00,,,0.01,Wunderground v.1.13,2013-01-29 14:42:00,
2013-01-29 09:47:00,30.5,25.7,30.16,ESE,120,0.0,1.0,82,0.00,,,0.01,Wunderground v.1.13,2013-01-29 14:47:00,
2013-01-29 09:52:00,30.6,25.8,30.15,ESE,120,1.0,3.0,82,0.00,,,0.01,Wunderground v.1.13,2013-01-29 14:52:00,
2013-01-29 09:57:00,30.6,25.8,30.15,ESE,120,1.0,1.0,82,0.00,,,0.01,Wunderground v.1.13,2013-01-29 14:57:00,
2013-01-29 10:02:00,30.3,25.5,30.15,SSE,162,2.0,2.0,82,0.00,,,0.01,Wunderground v.1.13,2013-01-29 15:02:00,
2013-01-29 10:07:00,30.0,25.5,30.16,SSE,147,0.0,2.0,83,0.00,,,0.01,Wunderground v.1.13,2013-01-29 15:07:00,
2013-01-29 10:13:00,30.1,25.8,30.16,SSE,147,1.0,1.0,84,0.00,,,0.01,Wunderground v.1.13,2013-01-29 15:13:00,
2013-01-29 10:19:00,29.9,25.7,30.16,SSE,147,0.0,2.0,84,0.00,,,0.01,Wunderground v.1.13,2013-01-29 15:19:00,
2013-01-29 10:24:00,30.3,26.3,30.16,SSE,147,0.0,2.0,85,0.00,,,0.01,Wunderground v.1.13,2013-01-29 15:24:00,
2013-01-29 10:29:00,30.6,26.3,30.17,SSE,147,1.0,1.0,84,0.00,,,0.01,Wunderground v.1.13,2013-01-29 15:29:00,
2013-01-29 10:34:00,30.7,26.4,30.17,SSE,147,0.0,1.0,84,0.00,,,0.01,Wunderground v.1.13,2013-01-29 15:34:00,
2013-01-29 10:39:00,31.0,27.0,30.16,SSE,147,0.0,1.0,85,0.00,,,0.01,Wunderground v.1.13,2013-01-29 15:39:00,
2013-01-29 10:44:00,31.2,26.9,30.17,SSE,147,0.0,2.0,84,0.00,,,0.01,Wunderground v.1.13,2013-01-29 15:44:00,
2013-01-29 10:49:00,31.4,27.4,30.17,SSE,147,0.0,0.0,85,0.00,,,0.01,Wunderground v.1.13,2013-01-29 15:49:00,
2013-01-29 10:54:00,31.7,27.7,30.17,SSE,147,0.0,1.0,85,0.00,,,0.01,Wunderground v.1.13,2013-01-29 15:54:00,
2013-01-29 10:59:00,32.0,28.0,30.16,SSE,147,0.0,0.0,85,0.00,,,0.01,Wunderground v.1.13,2013-01-29 15:59:00,
2013-01-29 11:05:00,32.2,27.9,30.16,SSE,147,0.0,0.0,84,0.00,,,0.01,Wunderground v.1.13,2013-01-29 16:05:00,
2013-01-29 11:10:00,32.3,28.0,30.15,SSE,147,0.0,0.0,84,0.00,,,0.01,Wunderground v.1.13,2013-01-29 16:10:00,
2013-01-29 11:15:00,32.3,28.3,30.15,SSE,147,0.0,0.0,85,0.00,,,0.01,Wunderground v.1.13,2013-01-29 16:15:00,
2013-01-29 11:21:00,32.6,28.9,30.15,SSE,147,0.0,0.0,86,0.00,,,0.01,Wunderground v.1.13,2013-01-29 16:21:00,
2013-01-29 11:26:00,32.9,29.2,30.15,SSE,147,1.0,1.0,86,0.00,,,0.01,Wunderground v.1.13,2013-01-29 16:26:00,
2013-01-29 11:31:00,33.1,29.1,30.15,SSE,147,1.0,1.0,85,0.00,,,0.01,Wunderground v.1.13,2013-01-29 16:31:00,
2013-01-29 11:36:00,32.9,28.9,30.16,SSE,167,2.0,2.0,85,0.00,,,0.01,Wunderground v.1.13,2013-01-29 16:36:00,
2013-01-29 11:41:00,32.7,29.0,30.16,SSE,167,0.0,1.0,86,0.00,,,0.01,Wunderground v.1.13,2013-01-29 16:41:00,
2013-01-29 11:46:00,33.0,29.6,30.16,SSE,167,1.0,1.0,87,0.00,,,0.01,Wunderground v.1.13,2013-01-29 16:46:00,
2013-01-29 11:51:00,32.9,29.2,30.16,SSE,150,2.0,3.0,86,0.00,,,0.01,Wunderground v.1.13,2013-01-29 16:51:00,
2013-01-29 11:57:00,33.0,29.6,30.16,SSE,150,2.0,2.0,87,0.00,,,0.01,Wunderground v.1.13,2013-01-29 16:57:00,
2013-01-29 12:03:00,33.0,29.6,30.15,SSE,150,1.0,1.0,87,0.00,,,0.01,Wunderground v.1.13,2013-01-29 17:03:00,
2013-01-29 12:08:00,33.0,29.6,30.15,SSE,150,0.0,2.0,87,0.00,,,0.01,Wunderground v.1.13,2013-01-29 17:08:00,
2013-01-29 12:14:00,32.8,29.4,30.15,SSE,150,0.0,0.0,87,0.00,,,0.01,Wunderground v.1.13,2013-01-29 17:14:00,
2013-01-29 12:19:00,33.0,29.6,30.14,SSE,150,0.0,0.0,87,0.00,,,0.01,Wunderground v.1.13,2013-01-29 17:19:00,
2013-01-29 12:24:00,33.4,30.2,30.14,SSE,150,0.0,2.0,88,0.00,,,0.01,Wunderground v.1.13,2013-01-29 17:24:00,
2013-01-29 12:29:00,33.8,30.3,30.13,SSE,150,0.0,0.0,87,0.00,,,0.01,Wunderground v.1.13,2013-01-29 17:29:00,
2013-01-29 12:34:00,33.9,30.4,30.12,SSE,150,0.0,1.0,87,0.00,,,0.01,Wunderground v.1.13,2013-01-29 17:34:00,
2013-01-29 12:40:00,34.0,30.5,30.12,SSE,150,0.0,0.0,87,0.00,,,0.01,Wunderground v.1.13,2013-01-29 17:40:00,
2013-01-29 12:45:00,34.2,30.7,30.12,SSE,150,1.0,1.0,87,0.00,,,0.01,Wunderground v.1.13,2013-01-29 17:45:00,
2013-01-29 12:50:00,34.0,30.5,30.13,WSW,255,2.0,3.0,87,0.00,,,0.01,Wunderground v.1.13,2013-01-29 17:50:00,
2013-01-29 12:55:00,33.8,30.9,30.13,West,264,0.0,1.0,89,0.00,,,0.01,Wunderground v.1.13,2013-01-29 17:55:00,
2013-01-29 13:00:00,33.9,31.0,30.13,West,264,0.0,1.0,89,0.00,,,0.01,Wunderground v.1.13,2013-01-29 18:00:00,
2013-01-29 13:05:00,34.1,31.2,30.13,West,264,0.0,0.0,89,0.00,,,0.01,Wunderground v.1.13,2013-01-29 18:05:00,
2013-01-29 13:11:00,34.4,31.5,30.13,West,264,1.0,2.0,89,0.00,,,0.01,Wunderground v.1.13,2013-01-29 18:11:00,
2013-01-29 13:15:00,34.4,31.5,30.13,West,264,0.0,1.0,89,0.00,,,0.01,Wunderground v.1.13,2013-01-29 18:15:00,
2013-01-29 13:20:00,34.7,31.8,30.13,SSE,167,1.0,2.0,89,0.00,,,0.01,Wunderground v.1.13,2013-01-29 18:20:00,
2013-01-29 13:25:00,34.8,31.9,30.12,South,175,2.0,3.0,89,0.00,,,0.01,Wunderground v.1.13,2013-01-29 18:25:00,
2013-01-29 13:31:00,34.7,31.5,30.12,SE,132,0.0,1.0,88,0.00,,,0.01,Wunderground v.1.13,2013-01-29 18:31:00,
2013-01-29 13:37:00,34.7,31.8,30.12,SW,222,0.0,1.0,89,0.00,,,0.01,Wunderground v.1.13,2013-01-29 18:37:00,
2013-01-29 13:42:00,34.8,31.9,30.12,SE,131,0.0,1.0,89,0.00,,,0.01,Wunderground v.1.13,2013-01-29 18:42:00,
2013-01-29 13:47:00,34.8,31.9,30.12,SE,132,0.0,1.0,89,0.00,,,0.01,Wunderground v.1.13,2013-01-29 18:47:00,
2013-01-29 13:53:00,34.7,31.8,30.12,SSE,166,1.0,1.0,89,0.00,,,0.01,Wunderground v.1.13,2013-01-29 18:53:00,
2013-01-29 13:58:00,34.4,31.5,30.12,SSW,206,2.0,2.0,89,0.00,,,0.01,Wunderground v.1.13,2013-01-29 18:58:00,
2013-01-29 14:03:00,34.1,31.2,30.12,SSW,213,2.0,2.0,89,0.00,,,0.01,Wunderground v.1.13,2013-01-29 19:03:00,
2013-01-29 14:08:00,33.8,31.2,30.12,SSE,155,1.0,3.0,90,0.00,,,0.01,Wunderground v.1.13,2013-01-29 19:08:00,
2013-01-29 14:13:00,33.7,31.1,30.11,South,184,0.0,3.0,90,0.00,,,0.01,Wunderground v.1.13,2013-01-29 19:13:00,
2013-01-29 14:18:00,33.4,30.8,30.12,South,182,0.0,3.0,90,0.00,,,0.01,Wunderground v.1.13,2013-01-29 19:18:00,
2013-01-29 14:24:00,33.4,30.8,30.12,SSE,168,0.0,2.0,90,0.00,,,0.01,Wunderground v.1.13,2013-01-29 19:24:00,
2013-01-29 14:29:00,33.2,30.6,30.13,SE,136,1.0,4.0,90,0.00,,,0.01,Wunderground v.1.13,2013-01-29 19:29:00,
2013-01-29 14:34:00,33.1,30.5,30.13,SE,128,1.0,3.0,90,0.00,,,0.01,Wunderground v.1.13,2013-01-29 19:34:00,
2013-01-29 14:39:00,32.9,30.3,30.13,ESE,113,1.0,4.0,90,0.00,,,0.01,Wunderground v.1.13,2013-01-29 19:39:00,
2013-01-29 14:44:00,32.8,30.2,30.14,SE,142,1.0,2.0,90,0.00,,,0.01,Wunderground v.1.13,2013-01-29 19:44:00,
2013-01-29 14:49:00,32.8,30.5,30.13,ESE,107,1.0,2.0,91,0.00,,,0.01,Wunderground v.1.13,2013-01-29 19:49:00,
2013-01-29 14:54:00,32.6,30.3,30.13,East,82,1.0,2.0,91,0.00,,,0.01,Wunderground v.1.13,2013-01-29 19:54:00,
2013-01-29 15:00:00,32.4,30.1,30.13,ENE,71,2.0,2.0,91,0.00,,,0.01,Wunderground v.1.13,2013-01-29 20:00:00,
2013-01-29 15:01:00,32.3,30.0,30.13,ENE,71,0.0,2.0,91,0.00,,,0.01,Wunderground v.1.13,2013-01-29 20:01:00,
2013-01-29 15:06:00,32.1,29.8,30.13,East,99,0.0,2.0,91,0.00,,,0.01,Wunderground v.1.13,2013-01-29 20:06:00,
2013-01-29 15:12:00,32.0,29.7,30.13,NE,40,1.0,3.0,91,0.00,,,0.01,Wunderground v.1.13,2013-01-29 20:12:00,
2013-01-29 15:17:00,32.0,29.7,30.14,SE,134,0.0,4.0,91,0.00,,,0.01,Wunderground v.1.13,2013-01-29 20:17:00,
2013-01-29 15:23:00,32.0,29.7,30.14,SE,134,1.0,1.0,91,0.00,,,0.01,Wunderground v.1.13,2013-01-29 20:23:00,
2013-01-29 15:28:00,32.0,29.7,30.14,ENE,74,1.0,2.0,91,0.00,,,0.01,Wunderground v.1.13,2013-01-29 20:28:00,
2013-01-29 15:33:00,31.8,29.5,30.14,East,101,0.0,3.0,91,0.00,,,0.01,Wunderground v.1.13,2013-01-29 20:33:00,
2013-01-29 15:38:00,31.5,29.2,30.14,East,92,5.0,5.0,91,0.00,,,0.01,Wunderground v.1.13,2013-01-29 20:38:00,
2013-01-29 15:43:00,31.0,28.7,30.15,SE,140,0.0,6.0,91,0.00,,,0.01,Wunderground v.1.13,2013-01-29 20:43:00,
2013-01-29 15:49:00,30.7,28.4,30.15,SE,138,4.0,4.0,91,0.00,,,0.01,Wunderground v.1.13,2013-01-29 20:49:00,
2013-01-29 15:54:00,30.6,28.3,30.15,SE,140,3.0,4.0,91,0.00,,,0.01,Wunderground v.1.13,2013-01-29 20:54:00,
2013-01-29 15:59:00,30.4,28.4,30.15,East,84,2.0,4.0,92,0.00,,,0.01,Wunderground v.1.13,2013-01-29 20:59:00,
2013-01-29 16:04:00,30.2,28.2,30.15,SSE,155,3.0,3.0,92,0.00,,,0.01,Wunderground v.1.13,2013-01-29 21:04:00,
2013-01-29 16:10:00,30.2,28.2,30.14,East,80,2.0,2.0,92,0.00,,,0.01,Wunderground v.1.13,2013-01-29 21:10:00,
2013-01-29 16:15:00,30.2,28.2,30.14,East,80,1.0,1.0,92,0.00,,,0.01,Wunderground v.1.13,2013-01-29 21:15:00,
2013-01-29 16:20:00,30.3,28.3,30.14,East,80,0.0,1.0,92,0.00,,,0.01,Wunderground v.1.13,2013-01-29 21:20:00,
2013-01-29 16:25:00,30.3,28.3,30.14,East,79,2.0,2.0,92,0.00,,,0.01,Wunderground v.1.13,2013-01-29 21:25:00,
2013-01-29 16:30:00,30.3,28.3,30.13,East,79,0.0,0.0,92,0.00,,,0.01,Wunderground v.1.13,2013-01-29 21:30:00,
2013-01-29 16:35:00,30.4,28.4,30.14,ENE,76,1.0,1.0,92,0.00,,,0.01,Wunderground v.1.13,2013-01-29 21:35:00,
2013-01-29 16:40:00,30.4,28.4,30.13,NE,34,1.0,2.0,92,0.00,,,0.01,Wunderground v.1.13,2013-01-29 21:40:00,
2013-01-29 16:45:00,30.3,28.3,30.13,ENE,78,1.0,2.0,92,0.00,,,0.01,Wunderground v.1.13,2013-01-29 21:45:00,
2013-01-29 16:51:00,30.3,28.3,30.14,ENE,78,0.0,1.0,92,0.00,,,0.01,Wunderground v.1.13,2013-01-29 21:51:00,
2013-01-29 16:56:00,30.3,28.5,30.14,SW,215,0.0,1.0,93,0.00,,,0.01,Wunderground v.1.13,2013-01-29 21:56:00,
2013-01-29 17:01:00,30.3,28.5,30.15,SW,215,0.0,0.0,93,0.00,,,0.01,Wunderground v.1.13,2013-01-29 22:01:00,
2013-01-29 17:06:00,30.3,28.5,30.15,SW,215,0.0,1.0,93,0.00,,,0.01,Wunderground v.1.13,2013-01-29 22:06:00,
2013-01-29 17:12:00,30.4,28.6,30.14,SE,135,0.0,2.0,93,0.00,,,0.01,Wunderground v.1.13,2013-01-29 22:12:00,
2013-01-29 17:16:00,30.3,28.3,30.15,SE,135,0.0,2.0,92,0.00,,,0.01,Wunderground v.1.13,2013-01-29 22:16:00,
2013-01-29 17:22:00,30.3,28.3,30.14,SE,135,0.0,1.0,92,0.00,,,0.01,Wunderground v.1.13,2013-01-29 22:22:00,
2013-01-29 17:27:00,30.3,28.5,30.15,SE,135,0.0,1.0,93,0.00,,,0.01,Wunderground v.1.13,2013-01-29 22:27:00,
2013-01-29 17:32:00,30.4,28.6,30.15,SE,135,0.0,0.0,93,0.00,,,0.01,Wunderground v.1.13,2013-01-29 22:32:00,
2013-01-29 17:37:00,30.4,28.6,30.14,SE,135,0.0,1.0,93,0.00,,,0.01,Wunderground v.1.13,2013-01-29 22:37:00,
2013-01-29 17:43:00,30.4,28.6,30.14,SE,135,0.0,0.0,93,0.00,,,0.01,Wunderground v.1.13,2013-01-29 22:43:00,
2013-01-29 17:48:00,30.4,28.6,30.14,ESE,119,0.0,2.0,93,0.00,,,0.01,Wunderground v.1.13,2013-01-29 22:48:00,
2013-01-29 17:53:00,30.5,28.7,30.14,ESE,119,0.0,1.0,93,0.00,,,0.01,Wunderground v.1.13,2013-01-29 22:53:00,
2013-01-29 17:58:00,30.5,28.7,30.13,ESE,119,0.0,1.0,93,0.00,,,0.01,Wunderground v.1.13,2013-01-29 22:58:00,
2013-01-29 18:04:00,30.6,28.8,30.14,ESE,119,0.0,0.0,93,0.00,,,0.01,Wunderground v.1.13,2013-01-29 23:04:00,
2013-01-29 18:10:00,30.7,28.9,30.14,ESE,119,0.0,0.0,93,0.00,,,0.01,Wunderground v.1.13,2013-01-29 23:10:00,
2013-01-29 18:15:00,30.8,29.0,30.14,ESE,119,0.0,0.0,93,0.00,,,0.01,Wunderground v.1.13,2013-01-29 23:15:00,
2013-01-29 18:20:00,31.0,29.2,30.13,ESE,119,0.0,1.0,93,0.00,,,0.01,Wunderground v.1.13,2013-01-29 23:20:00,
2013-01-29 18:25:00,31.0,28.9,30.13,ESE,119,0.0,0.0,92,0.00,,,0.01,Wunderground v.1.13,2013-01-29 23:25:00,
2013-01-29 18:30:00,30.9,28.9,30.14,ESE,107,0.0,0.0,92,0.00,,,0.01,Wunderground v.1.13,2013-01-29 23:30:00,
2013-01-29 18:36:00,30.9,28.9,30.14,ESE,107,2.0,2.0,92,0.00,,,0.01,Wunderground v.1.13,2013-01-29 23:36:00,
2013-01-29 18:41:00,30.7,28.7,30.15,ESE,103,0.0,1.0,92,0.00,,,0.01,Wunderground v.1.13,2013-01-29 23:41:00,
2013-01-29 18:47:00,30.7,28.7,30.15,ESE,103,0.0,0.0,92,0.00,,,0.01,Wunderground v.1.13,2013-01-29 23:47:00,
2013-01-29 18:52:00,30.7,28.7,30.15,ESE,103,0.0,0.0,92,0.00,,,0.01,Wunderground v.1.13,2013-01-29 23:52:00,
2013-01-29 18:57:00,30.6,28.6,30.15,ESE,103,0.0,0.0,92,0.00,,,0.01,Wunderground v.1.13,2013-01-29 23:57:00,
2013-01-29 19:02:00,30.6,28.8,30.15,ESE,103,0.0,1.0,93,0.00,,,0.01,Wunderground v.1.13,2013-01-30 00:02:00,
2013-01-29 19:07:00,30.4,28.4,30.15,ESE,103,0.0,1.0,92,0.00,,,0.01,Wunderground v.1.13,2013-01-30 00:07:00,
2013-01-29 19:12:00,30.3,28.5,30.15,ESE,107,2.0,3.0,93,0.00,,,0.01,Wunderground v.1.13,2013-01-30 00:12:00,
2013-01-29 19:18:00,30.3,28.5,30.15,ESE,107,1.0,2.0,93,0.00,,,0.01,Wunderground v.1.13,2013-01-30 00:18:00,
2013-01-29 19:23:00,30.2,28.4,30.15,ESE,107,0.0,1.0,93,0.00,,,0.01,Wunderground v.1.13,2013-01-30 00:23:00,
2013-01-29 19:28:00,30.3,28.5,30.15,ESE,107,0.0,0.0,93,0.00,,,0.01,Wunderground v.1.13,2013-01-30 00:28:00,
2013-01-29 19:33:00,30.4,28.6,30.15,ESE,107,0.0,0.0,93,0.00,,,0.01,Wunderground v.1.13,2013-01-30 00:33:00,
2013-01-29 19:38:00,30.5,28.7,30.15,East,96,1.0,1.0,93,0.00,,,0.01,Wunderground v.1.13,2013-01-30 00:38:00,
2013-01-29 19:43:00,30.5,28.7,30.15,East,96,2.0,2.0,93,0.00,,,0.01,Wunderground v.1.13,2013-01-30 00:43:00,
2013-01-29 19:48:00,30.4,28.9,30.14,East,79,2.0,2.0,94,0.00,,,0.01,Wunderground v.1.13,2013-01-30 00:48:00,
2013-01-29 19:53:00,30.3,28.8,30.15,East,79,0.0,1.0,94,0.00,,,0.01,Wunderground v.1.13,2013-01-30 00:53:00,
2013-01-29 19:58:00,30.4,28.9,30.14,ENE,73,0.0,5.0,94,0.00,,,0.02,Wunderground v.1.13,2013-01-30 00:58:00,
2013-01-29 20:04:00,30.5,29.0,30.14,ENE,73,0.0,0.0,94,0.00,,,0.02,Wunderground v.1.13,2013-01-30 01:04:00,
2013-01-29 20:09:00,30.5,29.0,30.14,ENE,73,0.0,0.0,94,0.05,,,0.03,Wunderground v.1.13,2013-01-30 01:09:00,
2013-01-29 20:15:00,30.7,29.2,30.14,ENE,77,0.0,0.0,94,0.05,,,0.03,Wunderground v.1.13,2013-01-30 01:15:00,
2013-01-29 20:20:00,30.7,29.2,30.14,ENE,77,0.0,0.0,94,0.05,,,0.03,Wunderground v.1.13,2013-01-30 01:20:00,
2013-01-29 20:25:00,30.8,29.3,30.14,South,169,0.0,1.0,94,0.00,,,0.03,Wunderground v.1.13,2013-01-30 01:25:00,
2013-01-29 20:30:00,31.0,29.5,30.13,ESE,113,0.0,0.0,94,0.00,,,0.03,Wunderground v.1.13,2013-01-30 01:30:00,
2013-01-29 20:35:00,31.1,29.6,30.13,ESE,113,0.0,0.0,94,0.00,,,0.03,Wunderground v.1.13,2013-01-30 01:35:00,
2013-01-29 20:41:00,31.2,29.7,30.12,ESE,113,0.0,2.0,94,0.00,,,0.03,Wunderground v.1.13,2013-01-30 01:41:00,
2013-01-29 20:47:00,31.3,29.8,30.12,ESE,113,0.0,0.0,94,0.00,,,0.04,Wunderground v.1.13,2013-01-30 01:47:00,
2013-01-29 20:52:00,31.5,30.0,30.12,ESE,113,0.0,0.0,94,0.00,,,0.04,Wunderground v.1.13,2013-01-30 01:52:00,
2013-01-29 20:58:00,31.6,30.1,30.12,ESE,114,0.0,0.0,94,0.00,,,0.04,Wunderground v.1.13,2013-01-30 01:58:00,
2013-01-29 21:04:00,31.6,30.1,30.12,ESE,114,0.0,0.0,94,0.00,,,0.04,Wunderground v.1.13,2013-01-30 02:04:00,
2013-01-29 21:09:00,31.7,30.2,30.12,ESE,114,0.0,0.0,94,0.00,,,0.04,Wunderground v.1.13,2013-01-30 02:09:00,
2013-01-29 21:15:00,32.0,30.7,30.12,ESE,114,0.0,0.0,95,0.00,,,0.04,Wunderground v.1.13,2013-01-30 02:15:00,
2013-01-29 21:20:00,32.1,30.8,30.11,ESE,114,0.0,0.0,95,0.00,,,0.04,Wunderground v.1.13,2013-01-30 02:20:00,
2013-01-29 21:26:00,32.1,30.6,30.11,ESE,114,0.0,0.0,94,0.00,,,0.04,Wunderground v.1.13,2013-01-30 02:26:00,
2013-01-29 21:32:00,32.2,30.7,30.11,ENE,61,2.0,3.0,94,0.00,,,0.04,Wunderground v.1.13,2013-01-30 02:32:00,
2013-01-29 21:37:00,32.2,30.7,30.11,NE,43,0.0,1.0,94,0.00,,,0.05,Wunderground v.1.13,2013-01-30 02:37:00,
2013-01-29 21:42:00,32.2,30.7,30.11,NE,43,0.0,1.0,94,0.00,,,0.05,Wunderground v.1.13,2013-01-30 02:42:00,
2013-01-29 21:48:00,32.3,30.8,30.11,NE,43,0.0,0.0,94,0.00,,,0.05,Wunderground v.1.13,2013-01-30 02:48:00,
2013-01-29 21:53:00,32.4,30.9,30.11,NE,43,0.0,0.0,94,0.00,,,0.05,Wunderground v.1.13,2013-01-30 02:53:00,
2013-01-29 21:58:00,32.4,30.9,30.11,NE,43,1.0,1.0,94,0.00,,,0.05,Wunderground v.1.13,2013-01-30 02:58:00,
2013-01-29 22:04:00,32.3,30.8,30.11,WSW,244,0.0,0.0,94,0.00,,,0.05,Wunderground v.1.13,2013-01-30 03:04:00,
2013-01-29 22:09:00,32.4,30.9,30.11,SE,139,0.0,0.0,94,0.00,,,0.05,Wunderground v.1.13,2013-01-30 03:09:00,
2013-01-29 22:14:00,32.5,31.2,30.11,SE,139,0.0,0.0,95,0.00,,,0.05,Wunderground v.1.13,2013-01-30 03:14:00,
2013-01-29 22:19:00,32.5,31.2,30.10,SE,125,0.0,1.0,95,0.00,,,0.05,Wunderground v.1.13,2013-01-30 03:19:00,
2013-01-29 22:25:00,32.5,31.2,30.11,SE,125,0.0,1.0,95,0.00,,,0.05,Wunderground v.1.13,2013-01-30 03:25:00,
2013-01-29 22:30:00,32.4,31.1,30.10,SE,125,0.0,1.0,95,0.00,,,0.05,Wunderground v.1.13,2013-01-30 03:30:00,
2013-01-29 22:36:00,32.5,31.2,30.09,East,92,0.0,2.0,95,0.00,,,0.05,Wunderground v.1.13,2013-01-30 03:36:00,
2013-01-29 22:42:00,32.5,31.2,30.09,East,92,0.0,0.0,95,0.00,,,0.05,Wunderground v.1.13,2013-01-30 03:42:00,
2013-01-29 22:47:00,32.5,31.2,30.10,SE,138,2.0,2.0,95,0.00,,,0.05,Wunderground v.1.13,2013-01-30 03:47:00,
2013-01-29 22:52:00,32.5,31.2,30.09,East,98,0.0,2.0,95,0.00,,,0.05,Wunderground v.1.13,2013-01-30 03:52:00,
2013-01-29 22:57:00,32.5,31.2,30.09,NNE,29,2.0,2.0,95,0.00,,,0.05,Wunderground v.1.13,2013-01-30 03:57:00,
2013-01-29 23:02:00,32.5,31.2,30.10,NNE,29,0.0,2.0,95,0.00,,,0.05,Wunderground v.1.13,2013-01-30 04:02:00,
2013-01-29 23:07:00,32.5,31.2,30.10,NNE,29,1.0,2.0,95,0.00,,,0.06,Wunderground v.1.13,2013-01-30 04:07:00,
2013-01-29 23:12:00,32.6,31.3,30.10,NNE,29,0.0,1.0,95,0.09,,,0.07,Wunderground v.1.13,2013-01-30 04:12:00,
2013-01-29 23:17:00,32.6,31.3,30.11,NNE,29,2.0,2.0,95,0.09,,,0.07,Wunderground v.1.13,2013-01-30 04:17:00,
2013-01-29 23:23:00,32.7,31.4,30.10,NNE,29,0.0,1.0,95,0.06,,,0.08,Wunderground v.1.13,2013-01-30 04:23:00,
2013-01-29 23:28:00,32.8,31.5,30.10,NNE,29,0.0,1.0,95,0.06,,,0.08,Wunderground v.1.13,2013-01-30 04:28:00,
2013-01-29 23:33:00,32.9,31.6,30.10,ENE,73,1.0,3.0,95,0.05,,,0.08,Wunderground v.1.13,2013-01-30 04:33:00,
2013-01-29 23:38:00,33.0,31.7,30.10,East,99,1.0,2.0,95,0.04,,,0.09,Wunderground v.1.13,2013-01-30 04:38:00,
2013-01-29 23:43:00,33.0,31.7,30.10,East,83,1.0,2.0,95,0.04,,,0.09,Wunderground v.1.13,2013-01-30 04:43:00,
2013-01-29 23:48:00,33.1,31.8,30.10,ENE,76,0.0,1.0,95,0.06,,,0.10,Wunderground v.1.13,2013-01-30 04:48:00,
2013-01-29 23:53:00,33.2,31.9,30.09,ENE,76,0.0,1.0,95,0.16,,,0.11,Wunderground v.1.13,2013-01-30 04:53:00,
2013-01-29 23:58:00,33.2,31.9,30.09,ENE,76,0.0,0.0,95,0.07,,,0.11,Wunderground v.1.13,2013-01-30 04:58:00,